Time;durP1;ratioP1;P1;durP2;ratioP2;P2;SDS_P1;SDS_P2;PMS_P1;PMS_P2;Temp;Humidity;BMP_temperature;BMP_pressure;BME280_temperature;BME280_humidity;BME280_pressure;Samples;Min_cycle;Max_cycle;Signal;HPM_P1;HPM_P2
2023/06/19 00:01:59;;;;;;;26.58;15.02;;;16.40;99.90;;;;;;4993997;28;20171;-69
2023/06/19 00:04:26;;;;;;;21.23;14.30;;;16.40;99.90;;;;;;5000252;28;20252;-68
2023/06/19 00:06:52;;;;;;;25.10;14.45;;;16.40;99.90;;;;;;5013859;28;20175;-68
2023/06/19 00:09:18;;;;;;;25.00;14.43;;;16.40;99.90;;;;;;5013552;28;20178;-69
2023/06/19 00:11:44;;;;;;;16.90;11.38;;;16.40;99.90;;;;;;5013348;28;20202;-69
2023/06/19 00:14:10;;;;;;;19.33;11.18;;;16.40;99.90;;;;;;5013334;28;20175;-69
2023/06/19 00:16:35;;;;;;;15.55;10.23;;;16.40;99.90;;;;;;5013321;28;20182;-70
2023/06/19 00:19:03;;;;;;;21.20;10.50;;;16.40;99.90;;;;;;5013053;28;20757;-70
2023/06/19 00:21:29;;;;;;;15.23;9.70;;;16.30;99.90;;;;;;5013016;28;20213;-69
2023/06/19 00:23:55;;;;;;;16.85;9.07;;;16.30;99.90;;;;;;5013362;28;20229;-69
2023/06/19 00:26:22;;;;;;;18.17;9.25;;;16.30;99.90;;;;;;5013096;28;20177;-70
2023/06/19 00:28:49;;;;;;;13.55;8.60;;;16.30;99.90;;;;;;5012935;28;20186;-71
2023/06/19 00:31:16;;;;;;;14.40;8.38;;;16.20;99.90;;;;;;5012986;28;20250;-77
2023/06/19 00:33:42;;;;;;;14.43;8.65;;;16.20;99.90;;;;;;5013659;28;20181;-80
2023/06/19 00:36:11;;;;;;;15.10;8.93;;;16.10;99.90;;;;;;5012794;28;20167;-66
2023/06/19 00:38:37;;;;;;;18.58;8.98;;;16.10;99.90;;;;;;5012912;28;20214;-65
2023/06/19 00:41:04;;;;;;;19.42;9.10;;;16.10;99.90;;;;;;5012789;28;20657;-66
2023/06/19 00:43:30;;;;;;;16.80;8.57;;;16.10;99.90;;;;;;5012649;28;20261;-66
2023/06/19 00:45:59;;;;;;;13.05;8.90;;;16.00;99.90;;;;;;5012730;28;20198;-65
2023/06/19 00:48:27;;;;;;;14.88;8.70;;;15.90;99.90;;;;;;5012920;28;20277;-65
2023/06/19 00:50:53;;;;;;;15.15;8.88;;;16.00;99.90;;;;;;5012477;28;20580;-65
2023/06/19 00:53:19;;;;;;;15.95;8.48;;;15.90;99.90;;;;;;5012269;28;20223;-65
2023/06/19 00:55:47;;;;;;;15.40;8.15;;;15.90;99.90;;;;;;5012535;28;20178;-65
2023/06/19 00:58:13;;;;;;;14.18;8.23;;;15.90;99.90;;;;;;5012483;28;20230;-67
2023/06/19 01:00:39;;;;;;;18.02;8.90;;;15.90;99.90;;;;;;5011855;28;20216;-66
2023/06/19 01:03:04;;;;;;;12.40;8.68;;;16.10;99.90;;;;;;5012795;28;20185;-66
2023/06/19 01:05:30;;;;;;;15.05;8.40;;;15.90;99.90;;;;;;5012290;28;20237;-66
2023/06/19 01:08:39;;;;;;;16.15;8.02;;;17.50;99.90;;;;;;5012247;28;20186;-67
2023/06/19 01:11:05;;;;;;;13.48;8.07;;;16.30;99.90;;;;;;4998734;28;20192;-66
2023/06/19 01:13:31;;;;;;;14.45;8.68;;;;;;;;;;5031822;28;20197;-66
2023/06/19 01:15:58;;;;;;;13.93;8.32;;;15.80;99.90;;;;;;5029766;28;20641;-65
2023/06/19 01:18:25;;;;;;;15.50;8.48;;;15.90;99.90;;;;;;5023837;28;20254;-65
2023/06/19 01:20:50;;;;;;;13.05;8.23;;;16.00;99.90;;;;;;5012903;28;20186;-65
2023/06/19 01:23:16;;;;;;;16.30;8.30;;;;;;;;;;5026210;28;20182;-66
2023/06/19 01:25:42;;;;;;;12.93;8.20;;;;;;;;;;5012420;28;20213;-67
2023/06/19 01:28:10;;;;;;;13.60;8.77;;;15.80;99.90;;;;;;5011885;28;20611;-67
2023/06/19 01:30:38;;;;;;;17.15;8.98;;;15.90;99.90;;;;;;5011980;28;20175;-67
2023/06/19 01:33:19;;;;;;;12.15;8.30;;;15.80;99.90;;;;;;5011913;28;20163;-66
2023/06/19 01:35:47;;;;;;;15.25;9.15;;;15.90;99.90;;;;;;5011859;28;20179;-66
2023/06/19 01:38:14;;;;;;;11.57;7.68;;;15.70;99.90;;;;;;5011598;28;20244;-66
2023/06/19 01:40:40;;;;;;;13.48;7.95;;;15.70;99.90;;;;;;5011518;28;20186;-66
2023/06/19 01:43:07;;;;;;;16.95;8.20;;;15.70;99.90;;;;;;5011637;28;20175;-66
2023/06/19 01:45:33;;;;;;;12.70;8.45;;;16.00;99.90;;;;;;5011727;28;20249;-66
2023/06/19 01:47:59;;;;;;;13.15;7.63;;;15.90;99.90;;;;;;5011663;28;20663;-66
2023/06/19 01:50:25;;;;;;;16.65;8.60;;;;;;;;;;5009064;28;20175;-66
2023/06/19 01:52:52;;;;;;;14.10;7.38;;;15.70;99.90;;;;;;4999943;28;20230;-64
2023/06/19 01:55:19;;;;;;;15.95;7.97;;;15.70;99.90;;;;;;5012060;28;20225;-63
2023/06/19 01:57:47;;;;;;;15.50;7.38;;;15.80;99.90;;;;;;4997834;28;20175;-64
2023/06/19 02:00:13;;;;;;;12.85;7.68;;;15.70;99.90;;;;;;5011341;28;20653;-66
2023/06/19 02:02:39;;;;;;;11.93;8.10;;;;;;;;;;5011501;28;20185;-65
2023/06/19 02:05:05;;;;;;;12.23;7.60;;;15.80;99.90;;;;;;5011331;28;20175;-68
2023/06/19 02:07:31;;;;;;;11.75;7.70;;;15.80;99.90;;;;;;5011429;28;20225;-68
2023/06/19 02:09:57;;;;;;;12.93;7.60;;;15.80;99.90;;;;;;5011303;28;20174;-67
2023/06/19 02:12:22;;;;;;;12.20;7.78;;;15.90;99.90;;;;;;5011451;28;20313;-68
2023/06/19 02:14:48;;;;;;;17.00;8.45;;;;;;;;;;5011388;28;20245;-68
2023/06/19 02:17:14;;;;;;;14.73;7.85;;;15.90;99.90;;;;;;5011327;28;20170;-68
2023/06/19 02:19:40;;;;;;;14.32;7.85;;;15.80;99.90;;;;;;5011243;28;20213;-67
2023/06/19 02:22:06;;;;;;;20.02;8.07;;;15.90;99.90;;;;;;5011226;28;20676;-68
2023/06/19 02:24:32;;;;;;;14.75;7.68;;;15.90;99.90;;;;;;5010976;28;20202;-66
2023/06/19 02:26:58;;;;;;;20.40;8.10;;;15.90;99.90;;;;;;5011100;28;20217;-68
2023/06/19 02:29:24;;;;;;;14.50;7.88;;;15.90;99.90;;;;;;5016180;28;20181;-68
2023/06/19 02:31:50;;;;;;;10.60;7.50;;;15.90;99.90;;;;;;5017707;28;20673;-69
2023/06/19 02:34:16;;;;;;;12.60;7.45;;;15.90;99.90;;;;;;5011054;28;20213;-67
2023/06/19 02:36:42;;;;;;;14.85;7.85;;;15.80;99.90;;;;;;5010840;28;20254;-68
2023/06/19 02:39:09;;;;;;;11.88;7.43;;;15.80;99.90;;;;;;5011211;28;20347;-66
2023/06/19 02:41:34;;;;;;;11.65;7.40;;;15.80;99.90;;;;;;5010897;28;20171;-68
2023/06/19 02:44:00;;;;;;;12.93;7.47;;;;;;;;;;5011042;28;20182;-68
2023/06/19 02:46:26;;;;;;;15.43;8.18;;;15.70;99.90;;;;;;5010821;28;20665;-71
2023/06/19 02:48:52;;;;;;;12.68;8.25;;;15.60;99.90;;;;;;5010870;28;20174;-75
2023/06/19 02:51:17;;;;;;;15.18;7.90;;;15.60;99.90;;;;;;5010761;28;20268;-67
2023/06/19 02:53:43;;;;;;;13.20;7.82;;;15.60;99.90;;;;;;5010898;28;20574;-68
2023/06/19 02:56:10;;;;;;;15.43;8.18;;;15.60;99.90;;;;;;5010790;28;20262;-67
2023/06/19 02:58:37;;;;;;;15.57;8.23;;;15.50;99.90;;;;;;4993327;28;20236;-68
2023/06/19 03:01:03;;;;;;;15.85;8.70;;;15.60;99.90;;;;;;5010906;28;20178;-68
2023/06/19 03:03:30;;;;;;;12.57;8.45;;;15.60;99.90;;;;;;5010812;28;20186;-68
2023/06/19 03:05:56;;;;;;;15.65;8.88;;;15.60;99.90;;;;;;5010680;28;20175;-68
2023/06/19 03:08:21;;;;;;;19.52;8.70;;;15.60;99.90;;;;;;5010697;28;20588;-69
2023/06/19 03:10:47;;;;;;;17.38;8.43;;;15.60;99.90;;;;;;5010790;28;20181;-69
2023/06/19 03:13:13;;;;;;;13.20;8.25;;;15.60;99.90;;;;;;5010863;28;20167;-70
2023/06/19 03:15:39;;;;;;;13.60;8.55;;;15.60;99.90;;;;;;5010765;28;20182;-70
2023/06/19 03:18:07;;;;;;;15.05;8.85;;;15.70;99.90;;;;;;5010678;28;20562;-70
2023/06/19 03:20:33;;;;;;;13.65;8.30;;;15.70;99.90;;;;;;5010619;28;20191;-70
2023/06/19 03:22:58;;;;;;;14.52;8.70;;;15.80;99.90;;;;;;5012443;28;20167;-70
2023/06/19 03:25:24;;;;;;;13.75;8.73;;;16.00;99.90;;;;;;5013832;28;20182;-70
2023/06/19 03:27:50;;;;;;;13.05;8.90;;;15.80;99.90;;;;;;5014304;28;20171;-70
2023/06/19 03:30:18;;;;;;;17.60;8.73;;;15.80;99.90;;;;;;5014243;28;20194;-70
2023/06/19 03:32:44;;;;;;;15.57;8.98;;;15.80;99.90;;;;;;5014092;28;20225;-68
2023/06/19 03:35:10;;;;;;;14.25;8.15;;;15.90;99.90;;;;;;5014044;28;20182;-67
2023/06/19 03:37:36;;;;;;;12.32;7.70;;;15.80;99.90;;;;;;5014185;28;20173;-67
2023/06/19 03:40:03;;;;;;;12.82;7.53;;;;;;;;;;5013967;28;20297;-67
2023/06/19 03:42:28;;;;;;;13.23;7.82;;;15.90;99.90;;;;;;5013962;28;20181;-67
2023/06/19 03:44:54;;;;;;;13.40;8.52;;;;;;;;;;5013751;28;20175;-68
2023/06/19 03:47:22;;;;;;;12.40;8.23;;;16.10;99.90;;;;;;5013806;28;20183;-67
2023/06/19 03:49:48;;;;;;;17.35;8.50;;;16.00;99.90;;;;;;5013742;28;20623;-66
2023/06/19 03:52:14;;;;;;;14.32;8.85;;;16.00;99.90;;;;;;5013714;28;20284;-67
2023/06/19 03:54:40;;;;;;;16.33;8.93;;;;;;;;;;5013657;28;20634;-67
2023/06/19 03:57:06;;;;;;;16.85;8.43;;;16.20;99.90;;;;;;5013619;28;20720;-67
2023/06/19 03:59:31;;;;;;;20.75;9.15;;;16.20;99.90;;;;;;5003405;28;20705;-66
2023/06/19 04:01:57;;;;;;;12.60;8.05;;;16.20;99.90;;;;;;5009845;28;20178;-66
2023/06/19 04:04:24;;;;;;;17.40;8.57;;;16.20;99.90;;;;;;5010131;28;20261;-66
2023/06/19 04:06:49;;;;;;;16.92;7.97;;;16.30;99.90;;;;;;4993746;28;20186;-65
2023/06/19 04:09:15;;;;;;;17.77;8.25;;;16.30;99.90;;;;;;4993879;28;20179;-67
2023/06/19 04:11:41;;;;;;;17.23;8.10;;;16.30;99.90;;;;;;4993776;28;20630;-68
2023/06/19 04:14:07;;;;;;;16.45;8.68;;;16.40;99.90;;;;;;4993772;28;20179;-68
2023/06/19 04:16:32;;;;;;;16.92;8.48;;;16.40;99.90;;;;;;4996410;28;20625;-74
2023/06/19 04:18:58;;;;;;;15.18;8.05;;;16.40;99.90;;;;;;5013160;28;20213;-74
2023/06/19 04:21:24;;;;;;;17.70;8.60;;;16.50;99.90;;;;;;5013224;28;20181;-66
2023/06/19 04:23:50;;;;;;;16.98;8.38;;;16.50;99.90;;;;;;5012913;28;20194;-67
2023/06/19 04:26:15;;;;;;;17.80;8.50;;;16.50;99.90;;;;;;5012818;28;20178;-66
2023/06/19 04:28:41;;;;;;;16.08;8.93;;;;;;;;;;5012975;28;20225;-67
2023/06/19 04:31:07;;;;;;;15.18;8.95;;;16.50;99.90;;;;;;5012838;28;20608;-67
2023/06/19 04:33:33;;;;;;;16.65;8.52;;;16.50;99.90;;;;;;5012264;28;20186;-66
2023/06/19 04:35:58;;;;;;;20.90;9.20;;;16.50;99.90;;;;;;5015611;28;20174;-65
2023/06/19 04:38:24;;;;;;;19.05;9.88;;;16.50;99.90;;;;;;5026086;28;20752;-67
2023/06/19 04:40:51;;;;;;;18.35;9.40;;;16.50;99.90;;;;;;5012901;28;20167;-66
2023/06/19 04:43:17;;;;;;;16.63;9.25;;;16.50;99.90;;;;;;5012742;28;20186;-66
2023/06/19 04:45:43;;;;;;;15.20;8.90;;;16.50;99.90;;;;;;5012771;28;20214;-65
2023/06/19 04:48:08;;;;;;;16.77;9.35;;;16.50;99.90;;;;;;5012550;28;20641;-66
2023/06/19 04:50:34;;;;;;;16.55;9.27;;;;;;;;;;5012554;28;20266;-66
2023/06/19 04:53:00;;;;;;;17.50;9.38;;;16.70;99.90;;;;;;5012408;28;20345;-65
2023/06/19 04:55:26;;;;;;;18.80;8.75;;;16.80;99.90;;;;;;5012765;28;20194;-65
2023/06/19 04:57:52;;;;;;;18.55;9.30;;;16.90;99.90;;;;;;5012335;28;20250;-67
2023/06/19 05:00:23;;;;;;;19.40;9.60;;;16.90;99.90;;;;;;5012414;28;20219;-66
2023/06/19 05:02:49;;;;;;;20.27;9.73;;;17.00;99.90;;;;;;5012221;28;20175;-66
2023/06/19 05:05:15;;;;;;;20.45;9.73;;;17.10;99.90;;;;;;5012511;28;20663;-64
2023/06/19 05:07:41;;;;;;;20.70;10.13;;;17.30;99.90;;;;;;5012496;28;20224;-66
2023/06/19 05:10:07;;;;;;;22.80;9.80;;;17.30;99.90;;;;;;5012303;28;20174;-67
2023/06/19 05:12:34;;;;;;;20.52;9.82;;;17.40;99.90;;;;;;5012255;28;20206;-66
2023/06/19 05:15:00;;;;;;;19.70;10.02;;;17.40;99.90;;;;;;5012075;28;20175;-66
2023/06/19 05:17:26;;;;;;;20.15;11.00;;;17.50;99.90;;;;;;5012180;28;20708;-66
2023/06/19 05:19:51;;;;;;;25.00;10.57;;;17.50;99.90;;;;;;4994272;28;20711;-66
2023/06/19 05:22:18;;;;;;;19.88;9.82;;;17.40;99.90;;;;;;5012033;28;20201;-66
2023/06/19 05:24:44;;;;;;;20.88;10.35;;;17.20;99.90;;;;;;5011956;28;20273;-65
2023/06/19 05:27:10;;;;;;;18.77;10.60;;;17.20;99.90;;;;;;5011777;28;20250;-64
2023/06/19 05:29:36;;;;;;;18.75;10.48;;;17.10;99.90;;;;;;5011842;28;20202;-65
2023/06/19 05:32:02;;;;;;;18.60;10.52;;;17.10;99.90;;;;;;5011978;28;20226;-65
2023/06/19 05:34:27;;;;;;;19.13;10.80;;;17.10;99.90;;;;;;5011790;28;20657;-65
2023/06/19 05:36:53;;;;;;;18.45;9.95;;;17.10;99.90;;;;;;5011896;28;20182;-65
2023/06/19 05:39:19;;;;;;;20.27;10.80;;;17.20;99.90;;;;;;5011773;28;20221;-65
2023/06/19 05:41:45;;;;;;;21.30;11.13;;;17.20;99.90;;;;;;5011761;28;20244;-65
2023/06/19 05:44:15;;;;;;;18.88;10.82;;;17.20;99.90;;;;;;5011568;28;20187;-69
2023/06/19 05:46:41;;;;;;;21.15;11.13;;;17.30;99.90;;;;;;5011328;28;20541;-68
2023/06/19 05:49:07;;;;;;;21.85;11.68;;;17.40;99.90;;;;;;5011707;28;20162;-69
2023/06/19 05:51:32;;;;;;;14.45;10.30;;;17.50;99.90;;;;;;4993913;28;20227;-69
2023/06/19 05:54:03;;;;;;;21.67;11.40;;;17.50;99.90;;;;;;5011549;28;20182;-69
2023/06/19 05:56:32;;;;;;;20.35;10.77;;;17.50;99.90;;;;;;5011548;28;20273;-69
2023/06/19 05:58:59;;;;;;;21.70;10.70;;;17.60;99.90;;;;;;5011307;28;20210;-68
2023/06/19 06:01:27;;;;;;;20.02;10.10;;;17.60;99.90;;;;;;5011231;28;20653;-68
2023/06/19 06:03:53;;;;;;;28.92;11.15;;;17.70;99.90;;;;;;5011182;28;20167;-69
2023/06/19 06:06:19;;;;;;;16.25;9.70;;;17.80;99.90;;;;;;5011410;28;20228;-67
2023/06/19 06:08:45;;;;;;;17.27;9.15;;;17.70;99.90;;;;;;5011288;28;20609;-67
2023/06/19 06:11:10;;;;;;;16.85;9.68;;;17.80;99.90;;;;;;5011202;28;20183;-66
2023/06/19 06:13:36;;;;;;;26.95;9.68;;;17.80;99.90;;;;;;5011296;28;20174;-65
2023/06/19 06:16:02;;;;;;;16.85;9.38;;;17.90;99.90;;;;;;5013104;28;20525;-67
2023/06/19 06:18:27;;;;;;;17.90;8.93;;;17.90;99.90;;;;;;5012126;28;20684;-66
2023/06/19 06:20:53;;;;;;;17.33;9.55;;;17.90;99.90;;;;;;4994055;28;20618;-66
2023/06/19 06:23:18;;;;;;;21.50;9.20;;;17.90;99.90;;;;;;5011298;28;20245;-67
2023/06/19 06:25:45;;;;;;;20.27;9.13;;;18.00;99.90;;;;;;5011118;28;20166;-67
2023/06/19 06:28:11;;;;;;;15.32;9.07;;;17.50;99.90;;;;;;5000222;28;20187;-68
2023/06/19 06:30:38;;;;;;;15.05;8.77;;;18.10;99.90;;;;;;5011881;28;20399;-67
2023/06/19 06:33:04;;;;;;;16.67;9.13;;;18.10;99.90;;;;;;4994937;28;20229;-67
2023/06/19 06:35:30;;;;;;;17.83;9.23;;;18.10;99.90;;;;;;5010835;28;20537;-66
2023/06/19 06:37:55;;;;;;;15.70;8.68;;;18.10;99.90;;;;;;5010262;28;20174;-67
2023/06/19 06:40:21;;;;;;;15.98;9.00;;;18.10;99.90;;;;;;5013215;28;20178;-67
2023/06/19 06:42:47;;;;;;;21.60;9.10;;;18.10;99.90;;;;;;5023932;28;20234;-68
2023/06/19 06:45:13;;;;;;;14.88;9.02;;;18.30;99.90;;;;;;5014771;28;20183;-71
2023/06/19 06:47:39;;;;;;;16.10;9.23;;;18.40;99.90;;;;;;5012407;28;20171;-65
2023/06/19 06:50:06;;;;;;;14.73;8.40;;;18.10;99.90;;;;;;4993444;28;20179;-65
2023/06/19 06:52:32;;;;;;;13.73;7.47;;;18.40;99.90;;;;;;5010584;28;20228;-65
2023/06/19 06:54:58;;;;;;;15.60;7.95;;;18.30;99.90;;;;;;5011455;28;20626;-65
2023/06/19 06:57:23;;;;;;;19.35;8.38;;;18.50;99.90;;;;;;5028197;28;20173;-66
2023/06/19 06:59:49;;;;;;;20.23;8.68;;;18.60;99.90;;;;;;5034395;28;20615;-65
2023/06/19 07:02:15;;;;;;;14.27;7.60;;;18.80;99.90;;;;;;5034382;28;20208;-66
2023/06/19 07:04:40;;;;;;;19.63;6.95;;;18.70;99.90;;;;;;5033551;28;20217;-67
2023/06/19 07:07:06;;;;;;;12.43;5.93;;;18.90;99.90;;;;;;4998748;28;20182;-70
2023/06/19 07:09:32;;;;;;;10.90;5.65;;;18.80;99.90;;;;;;5027092;28;20217;-72
2023/06/19 07:11:58;;;;;;;16.17;6.03;;;18.80;99.90;;;;;;5021600;28;20192;-72
2023/06/19 07:14:24;;;;;;;14.27;5.88;;;18.90;99.90;;;;;;5022448;28;20265;-68
2023/06/19 07:16:50;;;;;;;11.70;4.95;;;18.80;99.90;;;;;;4999193;28;20630;-71
2023/06/19 07:19:15;;;;;;;16.00;5.38;;;18.70;99.90;;;;;;5015226;28;20249;-70
2023/06/19 07:21:42;;;;;;;16.08;5.20;;;18.80;99.90;;;;;;5015329;28;20170;-71
2023/06/19 07:24:08;;;;;;;9.40;4.85;;;18.90;99.90;;;;;;5018305;28;20174;-71
2023/06/19 07:26:34;;;;;;;11.75;4.93;;;18.90;99.90;;;;;;5032836;28;20233;-72
2023/06/19 07:28:59;;;;;;;15.75;5.38;;;19.10;99.90;;;;;;5033021;28;20611;-72
2023/06/19 07:31:25;;;;;;;12.00;5.45;;;19.10;99.90;;;;;;5033763;28;20178;-68
2023/06/19 07:33:51;;;;;;;13.90;5.88;;;19.20;99.90;;;;;;5033833;28;20182;-66
2023/06/19 07:36:16;;;;;;;11.43;5.18;;;19.30;99.90;;;;;;5033722;28;20189;-66
2023/06/19 07:38:43;;;;;;;11.43;5.25;;;19.30;99.90;;;;;;5033439;28;20718;-65
2023/06/19 07:41:09;;;;;;;18.13;5.60;;;19.40;99.90;;;;;;5033544;28;20178;-67
2023/06/19 07:43:36;;;;;;;11.02;5.13;;;19.30;99.90;;;;;;5020868;28;20174;-67
2023/06/19 07:46:02;;;;;;;12.68;5.38;;;19.30;99.90;;;;;;5013369;28;20282;-66
2023/06/19 07:48:27;;;;;;;11.57;5.22;;;19.20;99.90;;;;;;5013814;28;20628;-67
2023/06/19 07:50:53;;;;;;;16.65;6.25;;;19.20;99.90;;;;;;5013428;28;20179;-65
2023/06/19 07:53:19;;;;;;;12.73;5.60;;;19.30;99.90;;;;;;5012970;28;20301;-66
2023/06/19 07:55:45;;;;;;;9.75;4.50;;;19.70;99.90;;;;;;5013515;28;20266;-65
2023/06/19 07:58:11;;;;;;;11.50;5.43;;;19.40;99.90;;;;;;5025620;28;20232;-66
2023/06/19 08:00:37;;;;;;;11.75;4.90;;;19.70;99.90;;;;;;5022400;28;20559;-66
2023/06/19 08:03:02;;;;;;;12.00;5.13;;;19.70;99.90;;;;;;5013706;28;20641;-66
2023/06/19 08:05:28;;;;;;;17.92;4.50;;;20.20;99.90;;;;;;5013420;28;20185;-65
2023/06/19 08:07:54;;;;;;;12.18;4.70;;;20.00;99.90;;;;;;5013178;28;20278;-66
2023/06/19 08:10:19;;;;;;;12.90;4.63;;;20.00;99.90;;;;;;5013401;28;20166;-65
2023/06/19 08:12:45;;;;;;;14.15;4.90;;;19.80;99.90;;;;;;5013267;28;20171;-66
2023/06/19 08:15:13;;;;;;;10.95;4.50;;;19.80;99.90;;;;;;5013140;28;20245;-65
2023/06/19 08:17:39;;;;;;;9.45;4.50;;;19.90;99.90;;;;;;5013053;28;20174;-66
2023/06/19 08:20:06;;;;;;;10.18;4.50;;;19.90;99.90;;;;;;5015201;28;20210;-65
2023/06/19 08:22:31;;;;;;;9.10;4.18;;;19.90;99.90;;;;;;5013062;28;20167;-69
2023/06/19 08:24:57;;;;;;;9.90;4.30;;;20.20;99.90;;;;;;5013050;28;20170;-65
2023/06/19 08:27:22;;;;;;;9.20;4.38;;;20.30;99.90;;;;;;5025587;28;20178;-65
2023/06/19 08:29:48;;;;;;;9.57;4.35;;;20.10;99.90;;;;;;5012762;28;20635;-65
2023/06/19 08:32:14;;;;;;;7.57;4.28;;;20.10;99.90;;;;;;4999560;28;20266;-65
2023/06/19 08:34:39;;;;;;;11.18;4.75;;;20.20;99.90;;;;;;5012786;28;20557;-66
2023/06/19 08:37:06;;;;;;;8.35;4.28;;;20.20;99.90;;;;;;5003576;28;20175;-65
2023/06/19 08:39:32;;;;;;;9.13;4.00;;;;;;;;;;5001190;28;20210;-64
2023/06/19 08:41:58;;;;;;;10.32;4.32;;;20.10;99.90;;;;;;5012512;28;20198;-65
2023/06/19 08:44:23;;;;;;;8.85;4.35;;;20.20;99.90;;;;;;5012349;28;20217;-65
2023/06/19 08:46:49;;;;;;;9.10;4.45;;;20.40;99.90;;;;;;5012584;28;20171;-65
2023/06/19 08:49:15;;;;;;;12.60;4.28;;;20.60;99.90;;;;;;5013206;28;20182;-64
2023/06/19 08:51:41;;;;;;;14.82;3.75;;;20.70;99.90;;;;;;4994549;28;20174;-65
2023/06/19 08:54:08;;;;;;;8.70;3.97;;;20.90;99.90;;;;;;5012178;28;20229;-65
2023/06/19 08:56:35;;;;;;;8.32;3.90;;;20.70;99.90;;;;;;5012422;28;20167;-65
2023/06/19 08:59:10;;;;;;;7.45;3.47;;;20.80;99.90;;;;;;5012183;28;20281;-65
2023/06/19 09:01:36;;;;;;;9.13;3.92;;;20.80;99.90;;;;;;5011894;28;20265;-65
2023/06/19 09:04:12;;;;;;;10.27;4.20;;;20.90;99.90;;;;;;5014062;28;20178;-65
2023/06/19 09:06:54;;;;;;;9.15;4.07;;;21.00;99.90;;;;;;5012198;28;20257;-65
2023/06/19 09:09:21;;;;;;;12.13;4.28;;;20.90;99.90;;;;;;5011448;28;20581;-64
2023/06/19 09:12:02;;;;;;;14.32;4.30;;;21.00;99.90;;;;;;5010483;28;20356;-64
2023/06/19 09:14:37;;;;;;;9.73;3.67;;;21.00;99.90;;;;;;5011775;28;20185;-65
2023/06/19 09:17:04;;;;;;;11.25;4.45;;;21.00;99.90;;;;;;5011974;28;20167;-64
2023/06/19 09:19:30;;;;;;;9.00;3.67;;;21.10;99.90;;;;;;5011794;28;20233;-65
2023/06/19 09:22:07;;;;;;;7.10;3.47;;;21.30;99.90;;;;;;5011533;28;20670;-65
2023/06/19 09:24:37;;;;;;;8.57;3.75;;;21.10;99.90;;;;;;5012031;28;20728;-65
2023/06/19 09:27:14;;;;;;;11.40;4.07;;;21.30;99.90;;;;;;5011875;28;20197;-66
2023/06/19 09:29:41;;;;;;;8.73;3.90;;;21.50;99.90;;;;;;5011964;28;20182;-65
2023/06/19 09:32:21;;;;;;;8.82;3.47;;;21.80;35.80;;;;;;5015720;28;20237;-65
2023/06/19 09:34:49;;;;;;;8.13;3.58;;;21.70;1.00;;;;;;5010775;28;20261;-65
2023/06/19 09:37:15;;;;;;;7.85;3.33;;;21.80;1.00;;;;;;5007912;28;20167;-65
2023/06/19 09:39:41;;;;;;;13.38;4.47;;;21.70;1.00;;;;;;5011539;28;20217;-65
2023/06/19 09:42:10;;;;;;;186.98;18.00;;;21.90;1.00;;;;;;5011546;28;20629;-65
2023/06/19 09:44:41;;;;;;;18.30;4.90;;;22.10;1.00;;;;;;5012544;28;20197;-65
2023/06/19 09:47:36;;;;;;;7.13;2.72;;;21.90;1.00;;;;;;4993506;28;20523;-64
2023/06/19 09:50:04;;;;;;;8.05;3.13;;;21.70;99.90;;;;;;5029564;28;20205;-65
2023/06/19 09:52:30;;;;;;;19.85;4.10;;;21.60;99.90;;;;;;5012149;28;20301;-65
2023/06/19 09:54:57;;;;;;;8.52;3.20;;;21.90;39.50;;;;;;5011462;28;20217;-65
2023/06/19 09:57:23;;;;;;;12.23;3.47;;;22.10;57.50;;;;;;5011066;28;20174;-65
2023/06/19 09:59:56;;;;;;;8.52;3.67;;;22.80;1.00;;;;;;5016180;28;20233;-65
2023/06/19 10:02:23;;;;;;;8.68;3.28;;;23.00;99.90;;;;;;5022064;28;20173;-64
2023/06/19 10:04:55;;;;;;;8.00;3.00;;;23.10;99.90;;;;;;5011697;28;20767;-66
2023/06/19 10:07:35;;;;;;;11.55;3.50;;;23.50;91.10;;;;;;5030537;28;20186;-64
2023/06/19 10:10:06;;;;;;;5.72;2.88;;;23.40;1.00;;;;;;5030695;28;20189;-65
2023/06/19 10:12:39;;;;;;;117.40;10.88;;;23.30;1.00;;;;;;5030886;28;20166;-65
2023/06/19 10:15:19;;;;;;;71.95;8.30;;;23.30;99.90;;;;;;5030707;28;20169;-65
2023/06/19 10:17:52;;;;;;;5.15;2.63;;;23.60;1.00;;;;;;5030915;28;20524;-66
2023/06/19 10:20:22;;;;;;;9.23;3.00;;;22.90;1.00;;;;;;5030869;28;20214;-66
2023/06/19 10:23:12;;;;;;;8.52;3.08;;;23.00;1.00;;;;;;5030848;28;20170;-66
2023/06/19 10:25:41;;;;;;;8.82;2.50;;;22.60;1.00;;;;;;5018996;28;20528;-66
2023/06/19 10:28:45;;;;;;;4.45;2.47;;;22.40;99.90;;;;;;5030685;28;20166;-66
2023/06/19 10:31:11;;;;;;;8.40;2.88;;;;;;;;;;4980996;28;20683;-66
2023/06/19 10:33:40;;;;;;;6.68;3.15;;;22.70;81.90;;;;;;5033585;28;20212;-65
2023/06/19 10:36:15;;;;;;;8.98;2.63;;;23.00;1.00;;;;;;5034626;28;20174;-65
2023/06/19 10:38:47;;;;;;;8.45;2.92;;;23.30;1.00;;;;;;5034695;28;20220;-66
2023/06/19 10:41:16;;;;;;;8.45;2.90;;;23.30;1.00;;;;;;5034702;28;20706;-66
2023/06/19 10:43:41;;;;;;;5.80;2.47;;;23.60;1.00;;;;;;5034736;28;20204;-66
2023/06/19 10:46:07;;;;;;;5.32;2.35;;;23.60;44.20;;;;;;5034586;28;20170;-65
2023/06/19 10:48:33;;;;;;;9.05;3.40;;;23.70;1.00;;;;;;5034519;28;20170;-65
2023/06/19 10:50:59;;;;;;;5.43;2.55;;;24.10;99.90;;;;;;5034511;28;20540;-66
2023/06/19 10:53:32;;;;;;;6.57;2.55;;;24.80;1.00;;;;;;5018410;28;20215;-65
2023/06/19 10:56:01;;;;;;;6.22;3.03;;;25.00;99.90;;;;;;5003331;28;20182;-66
2023/06/19 10:58:29;;;;;;;9.57;2.38;;;24.20;1.00;;;;;;5014370;28;20191;-66
2023/06/19 11:00:54;;;;;;;8.25;2.80;;;24.20;1.00;;;;;;5000897;28;20179;-65
2023/06/19 11:03:21;;;;;;;8.85;2.90;;;23.80;66.30;;;;;;4994970;28;20174;-66
2023/06/19 11:05:47;;;;;;;11.68;2.85;;;23.40;1.00;;;;;;4994846;28;20270;-66
2023/06/19 11:08:23;;;;;;;6.95;2.30;;;23.10;1.00;;;;;;4994816;28;20183;-66
2023/06/19 11:10:50;;;;;;;11.02;2.85;;;23.10;1.00;;;;;;4994755;28;20167;-66
2023/06/19 11:13:18;;;;;;;8.05;2.70;;;23.10;99.90;;;;;;5009436;28;20181;-66
2023/06/19 11:15:44;;;;;;;7.20;2.78;;;23.10;99.90;;;;;;5014224;28;20170;-66
2023/06/19 11:18:10;;;;;;;9.43;3.38;;;23.10;1.00;;;;;;5014218;28;20206;-66
2023/06/19 11:20:50;;;;;;;8.63;2.47;;;23.10;99.90;;;;;;5014227;28;20633;-68
2023/06/19 11:23:24;;;;;;;9.30;2.67;;;23.30;1.00;;;;;;5014058;28;20224;-66
2023/06/19 11:25:49;;;;;;;4.07;2.10;;;23.40;1.00;;;;;;5014059;28;20231;-66
2023/06/19 11:28:22;;;;;;;7.78;2.45;;;23.00;1.00;;;;;;5014077;28;20669;-66
2023/06/19 11:30:57;;;;;;;5.45;2.08;;;23.10;19.60;;;;;;5014219;28;20201;-66
2023/06/19 11:33:22;;;;;;;7.97;2.70;;;23.10;1.00;;;;;;5013803;28;20629;-65
2023/06/19 11:35:52;;;;;;;6.55;2.58;;;22.90;99.90;;;;;;5013942;28;20171;-66
2023/06/19 11:38:26;;;;;;;6.80;2.78;;;22.80;1.00;;;;;;5013753;28;20245;-65
2023/06/19 11:40:52;;;;;;;8.57;2.55;;;23.30;99.90;;;;;;5013781;28;20182;-66
2023/06/19 11:43:29;;;;;;;5.78;2.45;;;23.50;1.00;;;;;;4995713;28;20182;-66
2023/06/19 11:46:03;;;;;;;5.50;2.38;;;23.60;1.00;;;;;;5013831;28;20645;-66
2023/06/19 11:48:29;;;;;;;5.60;2.60;;;23.80;99.90;;;;;;5014286;28;20174;-65
2023/06/19 11:50:54;;;;;;;9.68;3.03;;;23.70;99.90;;;;;;5013684;28;20200;-65
2023/06/19 11:53:21;;;;;;;10.38;2.75;;;23.20;99.90;;;;;;5013592;28;20222;-66
2023/06/19 11:55:47;;;;;;;10.15;2.70;;;23.60;1.00;;;;;;5013737;28;20250;-66
2023/06/19 11:58:12;;;;;;;5.90;2.50;;;23.80;99.90;;;;;;5013563;28;20201;-66
2023/06/19 12:00:38;;;;;;;4.35;1.88;;;24.00;1.00;;;;;;5013646;28;20174;-66
2023/06/19 12:03:07;;;;;;;7.97;2.50;;;24.20;99.90;;;;;;5013569;28;20171;-66
2023/06/19 12:05:32;;;;;;;5.88;2.38;;;24.00;1.00;;;;;;4995624;28;20177;-66
2023/06/19 12:07:58;;;;;;;7.10;2.47;;;23.60;1.00;;;;;;5013381;28;20611;-66
2023/06/19 12:10:23;;;;;;;5.78;2.40;;;23.50;1.00;;;;;;4995919;28;20177;-67
2023/06/19 12:12:52;;;;;;;6.05;2.40;;;23.90;1.00;;;;;;5014522;28;20190;-64
2023/06/19 12:15:17;;;;;;;7.30;2.20;;;24.50;99.90;;;;;;5018271;28;20186;-66
2023/06/19 12:17:43;;;;;;;13.80;3.38;;;24.50;1.00;;;;;;5013205;28;20201;-65
2023/06/19 12:20:09;;;;;;;6.40;2.50;;;25.20;1.00;;;;;;5012925;28;20210;-65
2023/06/19 12:22:35;;;;;;;5.05;2.65;;;25.60;1.00;;;;;;5013040;28;20190;-64
2023/06/19 12:25:01;;;;;;;11.75;2.42;;;25.70;99.90;;;;;;5013033;28;20182;-64
2023/06/19 12:27:27;;;;;;;8.95;2.78;;;25.60;99.90;;;;;;5014047;28;20208;-64
2023/06/19 12:29:52;;;;;;;8.70;2.13;;;25.10;1.00;;;;;;5012896;28;20178;-63
2023/06/19 12:32:18;;;;;;;10.43;2.50;;;26.40;99.90;;;;;;5013095;28;20166;-66
2023/06/19 12:34:46;;;;;;;7.80;2.40;;;;;;;;;;5012856;28;20178;-64
2023/06/19 12:37:14;;;;;;;5.57;2.10;;;25.80;99.90;;;;;;4994984;28;20266;-64
2023/06/19 12:39:41;;;;;;;4.28;2.20;;;26.30;99.90;;;;;;4998764;28;20202;-64
2023/06/19 12:42:07;;;;;;;5.55;2.20;;;;;;;;;;5013737;28;20182;-65
2023/06/19 12:44:33;;;;;;;6.15;2.53;;;26.40;99.90;;;;;;5025747;28;20206;-64
2023/06/19 12:47:00;;;;;;;6.45;2.50;;;26.90;99.90;;;;;;5012725;28;20178;-65